createdAt,value
2022-10-25T00:04:33.674Z,3.20
2022-10-25T00:09:36.426Z,2.72
2022-10-25T00:19:43.126Z,2.83
2022-10-25T00:24:46.400Z,3.55
2022-10-25T00:29:49.173Z,3.53
2022-10-25T00:34:53.564Z,3.40
2022-10-25T00:39:56.348Z,4.07
2022-10-25T00:55:09.309Z,4.10
2022-10-25T01:00:12.921Z,4.18
2022-10-25T01:05:18.144Z,5.85
2022-10-25T01:10:20.971Z,4.32
2022-10-25T01:21:10.387Z,5.05
2022-10-25T01:26:34.862Z,3.90
2022-10-25T01:31:44.919Z,3.95
2022-10-25T01:36:57.021Z,3.85
2022-10-25T01:42:07.379Z,2.97
2022-10-25T01:47:18.519Z,3.92
2022-10-25T01:52:23.095Z,3.55
2022-10-25T01:57:43.667Z,3.50
2022-10-25T02:03:02.533Z,3.65
2022-10-25T02:08:14.265Z,3.70
2022-10-25T02:13:24.091Z,4.35
2022-10-25T02:23:40.661Z,3.25
2022-10-25T02:28:43.749Z,3.75
2022-10-25T02:33:48.856Z,3.30
2022-10-25T02:38:53.152Z,3.25
2022-10-25T02:43:55.980Z,3.05
2022-10-25T02:49:00.077Z,3.20
2022-10-25T02:54:02.879Z,3.05
2022-10-25T02:59:05.756Z,3.38
2022-10-25T03:04:09.911Z,3.58
2022-10-25T03:09:12.665Z,4.13
2022-10-25T03:14:15.611Z,3.67
2022-10-25T03:19:19.721Z,4.38
2022-10-25T03:24:22.481Z,5.85
2022-10-25T03:34:29.399Z,7.70
2022-10-25T03:39:32.197Z,6.28
2022-10-25T03:44:35.054Z,6.20
2022-10-25T03:49:39.207Z,5.90
2022-10-25T03:54:42.364Z,5.43
2022-10-25T03:59:45.444Z,6.03
2022-10-25T04:04:49.600Z,6.13
2022-10-25T04:09:52.349Z,6.18
2022-10-25T04:14:55.136Z,5.47
2022-10-25T04:25:01.988Z,6.00
2022-10-25T04:30:05.234Z,5.10
2022-10-25T04:35:10.913Z,4.13
2022-10-25T04:40:14.098Z,4.63
2022-10-25T04:45:17.045Z,5.22
2022-10-25T04:50:21.467Z,5.63
2022-10-25T04:55:24.192Z,4.93
2022-10-25T05:00:27.296Z,4.88
2022-10-25T05:05:31.396Z,5.03
2022-10-25T05:10:34.178Z,5.55
2022-10-25T05:15:37.046Z,5.40
2022-10-25T05:20:41.151Z,4.32
2022-10-25T05:25:43.908Z,4.85
2022-10-25T05:30:46.760Z,5.45
2022-10-25T05:35:50.908Z,4.78
2022-10-25T05:40:54.855Z,5.00
2022-10-25T05:46:03.666Z,4.53
2022-10-25T05:51:32.234Z,5.40
2022-10-25T05:56:36.643Z,5.28
2022-10-25T06:01:41.531Z,5.75
2022-10-25T06:06:48.052Z,5.40
2022-10-25T06:11:50.817Z,6.15
2022-10-25T06:16:53.647Z,7.47
2022-10-25T06:21:57.760Z,8.82
2022-10-25T06:27:00.513Z,8.45
2022-10-25T06:32:03.735Z,9.40
2022-10-25T06:37:08.017Z,10.13
2022-10-25T06:42:10.794Z,8.82
2022-10-25T06:47:17.410Z,8.73
2022-10-25T06:52:21.962Z,10.20
2022-10-25T06:57:24.676Z,8.10
2022-10-25T07:07:31.546Z,8.57
2022-10-25T07:12:38.054Z,8.25
2022-10-25T07:17:40.950Z,8.55
2022-10-25T07:22:45.069Z,7.43
2022-10-25T07:27:48.076Z,7.68
2022-10-25T07:32:51.137Z,8.15
2022-10-25T07:37:55.392Z,6.55
2022-10-25T07:42:58.209Z,7.40
2022-10-25T07:48:01.229Z,6.55
2022-10-25T07:53:05.396Z,4.75
2022-10-25T07:58:10.709Z,6.60
2022-10-25T08:03:13.554Z,5.65
2022-10-25T08:08:17.793Z,6.10
2022-10-25T08:13:20.609Z,5.95
2022-10-25T08:18:23.856Z,6.47
2022-10-25T08:23:29.307Z,6.22
2022-10-25T08:28:32.242Z,4.80
2022-10-25T08:33:35.073Z,4.50
2022-10-25T08:38:39.255Z,4.45
2022-10-25T08:43:55.321Z,4.40
2022-10-25T08:49:11.555Z,5.78
2022-10-25T08:54:24.033Z,4.32
2022-10-25T08:59:31.143Z,4.70
2022-10-25T09:04:34.604Z,4.72
2022-10-25T09:09:49.081Z,5.57
2022-10-25T09:15:01.558Z,5.45
2022-10-25T09:20:07.552Z,6.65
2022-10-25T09:25:21.581Z,6.32
2022-10-25T09:30:24.333Z,6.80
2022-10-25T09:35:32.048Z,7.53
2022-10-25T09:40:47.976Z,6.20
2022-10-25T09:45:55.233Z,8.07
2022-10-25T09:51:06.593Z,9.25
2022-10-25T09:56:10.845Z,9.70
2022-10-25T10:01:17.941Z,9.05
2022-10-25T10:06:23.871Z,6.72
2022-10-25T10:11:29.317Z,8.45
2022-10-25T10:16:35.577Z,6.65
2022-10-25T10:21:42.320Z,6.38
2022-10-25T10:26:51.477Z,5.90
2022-10-25T10:31:56.553Z,5.43
2022-10-25T10:37:03.854Z,4.55
2022-10-25T10:42:17.611Z,4.47
2022-10-25T10:47:22.600Z,3.80
2022-10-25T10:52:29.393Z,4.13
2022-10-25T10:57:36.043Z,4.63
2022-10-25T11:02:41.393Z,2.67
2022-10-25T11:07:44.597Z,2.95
2022-10-25T11:13:06.532Z,2.53
2022-10-25T11:18:10.642Z,2.88
2022-10-25T11:23:20.346Z,3.65
2022-10-25T11:28:41.533Z,3.50
2022-10-25T11:33:58.457Z,3.70
2022-10-25T11:39:12.224Z,4.15
2022-10-25T11:44:54.919Z,4.20
2022-10-25T11:50:12.730Z,5.78
2022-10-25T11:55:28.396Z,5.72
2022-10-25T12:00:45.421Z,4.43
2022-10-25T12:05:57.659Z,4.68
2022-10-25T12:11:05.573Z,4.10
2022-10-25T12:16:15.250Z,4.45
2022-10-25T12:21:23.135Z,3.80
2022-10-25T12:26:30.488Z,3.88
2022-10-25T12:31:39.131Z,3.30
2022-10-25T12:36:45.021Z,3.03
2022-10-25T12:41:52.461Z,2.58
2022-10-25T12:47:14.411Z,2.63
2022-10-25T12:52:29.338Z,2.37
2022-10-25T12:57:46.104Z,3.00
2022-10-25T13:03:25.421Z,2.53
2022-10-25T13:08:30.270Z,2.47
2022-10-25T13:13:35.434Z,3.33
2022-10-25T13:18:46.002Z,3.33
2022-10-25T13:24:10.106Z,3.53
2022-10-25T13:29:47.606Z,3.72
2022-10-25T13:34:51.775Z,2.67
2022-10-25T13:39:55.331Z,3.03
2022-10-25T13:45:06.109Z,2.97
2022-10-25T13:55:25.240Z,2.92
2022-10-25T14:00:37.321Z,3.47
2022-10-25T14:06:23.766Z,3.53
2022-10-25T14:11:36.476Z,3.33
2022-10-25T14:16:45.588Z,3.78
2022-10-25T14:21:52.481Z,3.97
2022-10-25T14:26:56.751Z,2.75
2022-10-25T14:31:59.935Z,3.30
2022-10-25T14:37:04.092Z,3.65
2022-10-25T14:42:17.350Z,3.67
2022-10-25T14:47:30.636Z,4.18
2022-10-25T14:52:34.866Z,4.00
2022-10-25T14:57:37.685Z,4.45
2022-10-25T15:02:41.533Z,5.10
2022-10-25T15:07:47.862Z,4.30
2022-10-25T15:12:52.273Z,4.40
2022-10-25T15:17:55.107Z,5.32
2022-10-25T15:23:07.166Z,5.00
2022-10-25T15:28:11.712Z,5.50
2022-10-25T15:33:17.039Z,4.85
2022-10-25T15:38:21.105Z,4.40
2022-10-25T15:43:23.861Z,4.82
2022-10-25T15:48:26.649Z,5.20
2022-10-25T15:53:30.757Z,4.97
2022-10-25T15:58:33.509Z,5.28
2022-10-25T16:03:36.239Z,5.00
2022-10-25T16:08:40.454Z,6.15
2022-10-25T16:13:46.348Z,5.28
2022-10-25T16:18:49.133Z,5.13
2022-10-25T16:23:53.235Z,5.32
2022-10-25T16:28:56.121Z,5.57
2022-10-25T16:33:58.832Z,5.82
2022-10-25T16:39:04.211Z,4.90
2022-10-25T16:44:07.479Z,4.93
2022-10-25T16:49:10.293Z,5.47
2022-10-25T16:54:15.642Z,5.18
2022-10-25T16:59:18.556Z,7.00
2022-10-25T17:04:23.286Z,7.82
2022-10-25T17:09:27.373Z,8.60
2022-10-25T17:14:30.156Z,8.02
2022-10-25T17:19:32.965Z,7.50
2022-10-25T17:24:37.630Z,6.90
2022-10-25T17:29:40.564Z,7.55
2022-10-25T17:34:43.245Z,7.28
2022-10-25T17:44:50.077Z,6.63
2022-10-25T17:49:54.246Z,7.60
2022-10-25T17:54:58.289Z,7.70
2022-10-25T18:00:00.985Z,7.45
2022-10-25T18:10:27.709Z,8.87
2022-10-25T18:15:30.351Z,10.07
2022-10-25T18:25:36.861Z,11.00
2022-10-25T18:30:39.553Z,10.40
2022-10-25T18:40:46.121Z,9.63
2022-10-25T18:45:48.802Z,10.00
2022-10-25T18:55:55.333Z,10.65
2022-10-25T19:00:58.295Z,9.55
2022-10-25T19:06:01.027Z,9.85
2022-10-25T19:16:09.470Z,10.25
2022-10-25T19:21:14.710Z,10.25
2022-10-25T19:26:20.676Z,11.00
2022-10-25T19:31:23.478Z,10.77
2022-10-25T19:41:30.120Z,11.88
2022-10-25T19:46:32.920Z,11.80
2022-10-25T19:51:35.643Z,12.05
2022-10-25T20:01:43.498Z,10.95
2022-10-25T20:06:46.328Z,12.27
2022-10-25T20:16:52.994Z,13.55
2022-10-25T20:27:01.893Z,13.35
2022-10-25T20:32:04.886Z,13.00
2022-10-25T20:37:09.704Z,14.05
2022-10-25T20:42:13.812Z,15.27
2022-10-25T20:47:16.604Z,15.35
2022-10-25T20:52:19.378Z,14.85
2022-10-25T20:57:23.505Z,12.82
2022-10-25T21:02:26.414Z,11.98
2022-10-25T21:07:30.878Z,11.70
2022-10-25T21:12:35.036Z,11.35
2022-10-25T21:17:37.766Z,12.30
2022-10-25T21:27:45.403Z,12.90
2022-10-25T21:32:48.377Z,12.10
2022-10-25T21:42:58.801Z,11.88
2022-10-25T21:48:01.536Z,12.30
2022-10-25T21:58:08.244Z,12.68
2022-10-25T22:03:11.040Z,12.40
2022-10-25T22:08:13.765Z,12.60
2022-10-25T22:18:20.368Z,14.27
2022-10-25T22:28:27.101Z,11.85
2022-10-25T22:33:30.561Z,12.13
2022-10-25T22:38:34.862Z,12.18
2022-10-25T22:43:39.714Z,12.35
2022-10-25T22:48:44.288Z,13.13
2022-10-25T22:53:47.128Z,13.32
2022-10-25T22:58:52.883Z,13.40
2022-10-25T23:03:57.118Z,18.67
2022-10-25T23:09:02.115Z,13.95
2022-10-25T23:14:07.405Z,12.40
2022-10-25T23:19:10.269Z,12.02
2022-10-25T23:24:13.001Z,11.98
2022-10-25T23:34:19.691Z,12.75
2022-10-25T23:39:22.521Z,12.23
2022-10-25T23:49:29.148Z,12.27
2022-10-25T23:59:35.802Z,11.27
